sensor_id;sensor_type;location;lat;lon;timestamp;P1;P2;P0
38687;PMS5003;24444;53.216;-6.664;2022-11-15T00:00:03;0;0;
38687;PMS5003;24444;53.216;-6.664;2022-11-15T00:02:31;0;0;
38687;PMS5003;24444;53.216;-6.664;2022-11-15T00:04:59;0;0;
38687;PMS5003;24444;53.216;-6.664;2022-11-15T00:07:26;0;0;
38687;PMS5003;24444;53.216;-6.664;2022-11-15T00:09:54;0;0;
38687;PMS5003;24444;53.216;-6.664;2022-11-15T00:12:22;0;0;
38687;PMS5003;24444;53.216;-6.664;2022-11-15T00:14:49;0;0;
38687;PMS5003;24444;53.216;-6.664;2022-11-15T00:17:17;0;0;
38687;PMS5003;24444;53.216;-6.664;2022-11-15T00:19:45;0;0;
38687;PMS5003;24444;53.216;-6.664;2022-11-15T00:22:12;0;0;
38687;PMS5003;24444;53.216;-6.664;2022-11-15T00:24:40;0;0;
38687;PMS5003;24444;53.216;-6.664;2022-11-15T00:27:07;0;0;
38687;PMS5003;24444;53.216;-6.664;2022-11-15T00:29:35;0;0;
38687;PMS5003;24444;53.216;-6.664;2022-11-15T00:32:03;0;0;
38687;PMS5003;24444;53.216;-6.664;2022-11-15T00:34:30;0;0;
38687;PMS5003;24444;53.216;-6.664;2022-11-15T00:36:58;0;0;
38687;PMS5003;24444;53.216;-6.664;2022-11-15T00:39:26;0;0;
38687;PMS5003;24444;53.216;-6.664;2022-11-15T00:41:53;0;0;
38687;PMS5003;24444;53.216;-6.664;2022-11-15T00:44:21;0;0;
38687;PMS5003;24444;53.216;-6.664;2022-11-15T00:46:48;0;0;
38687;PMS5003;24444;53.216;-6.664;2022-11-15T00:49:16;0;0;
38687;PMS5003;24444;53.216;-6.664;2022-11-15T00:51:43;0;0;
38687;PMS5003;24444;53.216;-6.664;2022-11-15T00:54:10;0;0;
38687;PMS5003;24444;53.216;-6.664;2022-11-15T00:56:37;0;0;
38687;PMS5003;24444;53.216;-6.664;2022-11-15T00:59:04;1;0;
38687;PMS5003;24444;53.216;-6.664;2022-11-15T01:04:44;0;0;
38687;PMS5003;24444;53.216;-6.664;2022-11-15T01:07:12;0;0;
38687;PMS5003;24444;53.216;-6.664;2022-11-15T01:09:39;0;0;
38687;PMS5003;24444;53.216;-6.664;2022-11-15T01:12:07;0;0;
38687;PMS5003;24444;53.216;-6.664;2022-11-15T01:14:34;0;0;
38687;PMS5003;24444;53.216;-6.664;2022-11-15T01:17:02;0;0;
38687;PMS5003;24444;53.216;-6.664;2022-11-15T01:19:30;0;0;
38687;PMS5003;24444;53.216;-6.664;2022-11-15T01:21:57;0;0;
38687;PMS5003;24444;53.216;-6.664;2022-11-15T01:24:25;0;0;
38687;PMS5003;24444;53.216;-6.664;2022-11-15T01:26:53;1;1;
38687;PMS5003;24444;53.216;-6.664;2022-11-15T01:29:20;0;0;
38687;PMS5003;24444;53.216;-6.664;2022-11-15T01:31:48;1;0;
38687;PMS5003;24444;53.216;-6.664;2022-11-15T01:34:16;2;1;
38687;PMS5003;24444;53.216;-6.664;2022-11-15T01:36:43;0;0;
38687;PMS5003;24444;53.216;-6.664;2022-11-15T01:39:10;0;0;
38687;PMS5003;24444;53.216;-6.664;2022-11-15T01:41:37;1;0;
38687;PMS5003;24444;53.216;-6.664;2022-11-15T01:44:31;1;0;
38687;PMS5003;24444;53.216;-6.664;2022-11-15T01:47:08;2;1;
38687;PMS5003;24444;53.216;-6.664;2022-11-15T01:49:39;0;0;
38687;PMS5003;24444;53.216;-6.664;2022-11-15T01:52:13;1;1;
38687;PMS5003;24444;53.216;-6.664;2022-11-15T01:54:43;2;1;
38687;PMS5003;24444;53.216;-6.664;2022-11-15T01:57:12;2;0;
38687;PMS5003;24444;53.216;-6.664;2022-11-15T01:59:40;2;0;
38687;PMS5003;24444;53.216;-6.664;2022-11-15T02:02:11;2;2;
38687;PMS5003;24444;53.216;-6.664;2022-11-15T02:04:40;0;0;
38687;PMS5003;24444;53.216;-6.664;2022-11-15T02:07:08;1;0;
38687;PMS5003;24444;53.216;-6.664;2022-11-15T02:09:38;2;1;
38687;PMS5003;24444;53.216;-6.664;2022-11-15T02:12:07;2;1;
38687;PMS5003;24444;53.216;-6.664;2022-11-15T02:14:37;2;1;
38687;PMS5003;24444;53.216;-6.664;2022-11-15T02:17:10;1;0;
38687;PMS5003;24444;53.216;-6.664;2022-11-15T02:19:55;1;0;
38687;PMS5003;24444;53.216;-6.664;2022-11-15T02:22:55;1;1;
38687;PMS5003;24444;53.216;-6.664;2022-11-15T02:25:39;3;1;
38687;PMS5003;24444;53.216;-6.664;2022-11-15T02:28:38;2;1;
38687;PMS5003;24444;53.216;-6.664;2022-11-15T02:31:15;2;1;
38687;PMS5003;24444;53.216;-6.664;2022-11-15T02:33:50;0;0;
38687;PMS5003;24444;53.216;-6.664;2022-11-15T02:36:27;2;1;
38687;PMS5003;24444;53.216;-6.664;2022-11-15T02:39:04;4;1;
38687;PMS5003;24444;53.216;-6.664;2022-11-15T02:41:39;2;0;
38687;PMS5003;24444;53.216;-6.664;2022-11-15T02:44:14;0;0;
38687;PMS5003;24444;53.216;-6.664;2022-11-15T02:46:48;2;1;
38687;PMS5003;24444;53.216;-6.664;2022-11-15T02:49:19;3;1;
38687;PMS5003;24444;53.216;-6.664;2022-11-15T02:51:48;4;2;
38687;PMS5003;24444;53.216;-6.664;2022-11-15T02:54:18;1;1;
38687;PMS5003;24444;53.216;-6.664;2022-11-15T02:56:49;4;1;
38687;PMS5003;24444;53.216;-6.664;2022-11-15T02:59:23;1;1;
38687;PMS5003;24444;53.216;-6.664;2022-11-15T03:02:22;2;1;
38687;PMS5003;24444;53.216;-6.664;2022-11-15T03:05:03;1;0;
38687;PMS5003;24444;53.216;-6.664;2022-11-15T03:07:42;1;1;
38687;PMS5003;24444;53.216;-6.664;2022-11-15T03:10:17;1;1;
38687;PMS5003;24444;53.216;-6.664;2022-11-15T03:12:54;2;1;
38687;PMS5003;24444;53.216;-6.664;2022-11-15T03:15:26;1;0;
38687;PMS5003;24444;53.216;-6.664;2022-11-15T03:17:58;2;0;
38687;PMS5003;24444;53.216;-6.664;2022-11-15T03:20:28;1;1;
38687;PMS5003;24444;53.216;-6.664;2022-11-15T03:22:59;2;1;
38687;PMS5003;24444;53.216;-6.664;2022-11-15T03:25:30;5;4;
38687;PMS5003;24444;53.216;-6.664;2022-11-15T03:28:01;3;1;
38687;PMS5003;24444;53.216;-6.664;2022-11-15T03:30:32;4;3;
38687;PMS5003;24444;53.216;-6.664;2022-11-15T03:33:03;4;2;
38687;PMS5003;24444;53.216;-6.664;2022-11-15T03:35:32;1;0;
38687;PMS5003;24444;53.216;-6.664;2022-11-15T03:38:05;2;1;
38687;PMS5003;24444;53.216;-6.664;2022-11-15T03:40:39;1;1;
38687;PMS5003;24444;53.216;-6.664;2022-11-15T03:43:09;4;3;
38687;PMS5003;24444;53.216;-6.664;2022-11-15T03:45:43;2;1;
38687;PMS5003;24444;53.216;-6.664;2022-11-15T03:48:16;7;2;
38687;PMS5003;24444;53.216;-6.664;2022-11-15T03:50:48;2;0;
38687;PMS5003;24444;53.216;-6.664;2022-11-15T03:53:16;3;1;
38687;PMS5003;24444;53.216;-6.664;2022-11-15T03:55:44;2;1;
38687;PMS5003;24444;53.216;-6.664;2022-11-15T03:58:12;2;1;
38687;PMS5003;24444;53.216;-6.664;2022-11-15T04:00:38;4;2;
38687;PMS5003;24444;53.216;-6.664;2022-11-15T04:03:06;0;0;
38687;PMS5003;24444;53.216;-6.664;2022-11-15T04:05:33;5;2;
38687;PMS5003;24444;53.216;-6.664;2022-11-15T04:08:01;2;1;
38687;PMS5003;24444;53.216;-6.664;2022-11-15T04:10:28;2;2;
38687;PMS5003;24444;53.216;-6.664;2022-11-15T04:12:55;1;0;
38687;PMS5003;24444;53.216;-6.664;2022-11-15T04:15:23;4;0;
38687;PMS5003;24444;53.216;-6.664;2022-11-15T04:17:52;4;1;
38687;PMS5003;24444;53.216;-6.664;2022-11-15T04:20:21;2;1;
38687;PMS5003;24444;53.216;-6.664;2022-11-15T04:22:51;1;0;
38687;PMS5003;24444;53.216;-6.664;2022-11-15T04:25:19;1;1;
38687;PMS5003;24444;53.216;-6.664;2022-11-15T04:27:46;1;0;
38687;PMS5003;24444;53.216;-6.664;2022-11-15T04:30:13;1;0;
38687;PMS5003;24444;53.216;-6.664;2022-11-15T04:32:41;3;1;
38687;PMS5003;24444;53.216;-6.664;2022-11-15T04:35:09;1;1;
38687;PMS5003;24444;53.216;-6.664;2022-11-15T04:37:36;0;0;
38687;PMS5003;24444;53.216;-6.664;2022-11-15T04:40:03;2;1;
38687;PMS5003;24444;53.216;-6.664;2022-11-15T04:42:31;4;2;
38687;PMS5003;24444;53.216;-6.664;2022-11-15T04:44:58;3;2;
38687;PMS5003;24444;53.216;-6.664;2022-11-15T04:47:25;3;1;
38687;PMS5003;24444;53.216;-6.664;2022-11-15T04:49:52;3;0;
38687;PMS5003;24444;53.216;-6.664;2022-11-15T04:52:19;1;1;
38687;PMS5003;24444;53.216;-6.664;2022-11-15T04:54:46;5;2;
38687;PMS5003;24444;53.216;-6.664;2022-11-15T04:57:13;3;2;
38687;PMS5003;24444;53.216;-6.664;2022-11-15T04:59:40;4;2;
38687;PMS5003;24444;53.216;-6.664;2022-11-15T05:02:07;1;1;
38687;PMS5003;24444;53.216;-6.664;2022-11-15T05:04:34;4;2;
38687;PMS5003;24444;53.216;-6.664;2022-11-15T05:07:02;1;0;
38687;PMS5003;24444;53.216;-6.664;2022-11-15T05:09:29;3;0;
38687;PMS5003;24444;53.216;-6.664;2022-11-15T05:11:56;2;1;
38687;PMS5003;24444;53.216;-6.664;2022-11-15T05:14:23;6;2;
38687;PMS5003;24444;53.216;-6.664;2022-11-15T05:16:50;6;2;
38687;PMS5003;24444;53.216;-6.664;2022-11-15T05:19:17;2;1;
38687;PMS5003;24444;53.216;-6.664;2022-11-15T05:21:44;3;1;
38687;PMS5003;24444;53.216;-6.664;2022-11-15T05:24:10;3;1;
38687;PMS5003;24444;53.216;-6.664;2022-11-15T05:26:37;2;1;
38687;PMS5003;24444;53.216;-6.664;2022-11-15T05:29:05;2;1;
38687;PMS5003;24444;53.216;-6.664;2022-11-15T05:31:33;2;1;
38687;PMS5003;24444;53.216;-6.664;2022-11-15T05:34:00;3;1;
38687;PMS5003;24444;53.216;-6.664;2022-11-15T05:36:31;2;2;
38687;PMS5003;24444;53.216;-6.664;2022-11-15T05:39:02;10;7;
38687;PMS5003;24444;53.216;-6.664;2022-11-15T05:41:32;2;2;
38687;PMS5003;24444;53.216;-6.664;2022-11-15T05:44:01;5;3;
38687;PMS5003;24444;53.216;-6.664;2022-11-15T05:46:32;6;2;
38687;PMS5003;24444;53.216;-6.664;2022-11-15T05:49:00;3;2;
38687;PMS5003;24444;53.216;-6.664;2022-11-15T05:51:28;5;4;
38687;PMS5003;24444;53.216;-6.664;2022-11-15T05:53:56;4;2;
38687;PMS5003;24444;53.216;-6.664;2022-11-15T05:56:25;4;2;
38687;PMS5003;24444;53.216;-6.664;2022-11-15T05:58:53;2;2;
38687;PMS5003;24444;53.216;-6.664;2022-11-15T06:01:21;4;2;
38687;PMS5003;24444;53.216;-6.664;2022-11-15T06:03:49;9;4;
38687;PMS5003;24444;53.216;-6.664;2022-11-15T06:06:16;6;2;
38687;PMS5003;24444;53.216;-6.664;2022-11-15T06:08:44;5;2;
38687;PMS5003;24444;53.216;-6.664;2022-11-15T06:11:11;5;2;
38687;PMS5003;24444;53.216;-6.664;2022-11-15T06:13:38;5;3;
38687;PMS5003;24444;53.216;-6.664;2022-11-15T06:16:06;6;4;
38687;PMS5003;24444;53.216;-6.664;2022-11-15T06:18:34;5;4;
38687;PMS5003;24444;53.216;-6.664;2022-11-15T06:21:01;6;6;
38687;PMS5003;24444;53.216;-6.664;2022-11-15T06:23:31;5;4;
38687;PMS5003;24444;53.216;-6.664;2022-11-15T06:26:00;6;5;
38687;PMS5003;24444;53.216;-6.664;2022-11-15T06:28:29;5;3;
38687;PMS5003;24444;53.216;-6.664;2022-11-15T06:31:01;1;1;
38687;PMS5003;24444;53.216;-6.664;2022-11-15T06:33:29;2;2;
38687;PMS5003;24444;53.216;-6.664;2022-11-15T06:35:59;3;1;
38687;PMS5003;24444;53.216;-6.664;2022-11-15T06:38:27;15;14;
38687;PMS5003;24444;53.216;-6.664;2022-11-15T06:40:53;5;4;
38687;PMS5003;24444;53.216;-6.664;2022-11-15T06:43:20;8;5;
38687;PMS5003;24444;53.216;-6.664;2022-11-15T06:45:47;6;3;
38687;PMS5003;24444;53.216;-6.664;2022-11-15T06:48:14;5;4;
38687;PMS5003;24444;53.216;-6.664;2022-11-15T06:50:41;5;3;
38687;PMS5003;24444;53.216;-6.664;2022-11-15T06:53:09;5;2;
38687;PMS5003;24444;53.216;-6.664;2022-11-15T06:55:36;2;2;
38687;PMS5003;24444;53.216;-6.664;2022-11-15T06:58:04;9;5;
38687;PMS5003;24444;53.216;-6.664;2022-11-15T07:00:31;2;2;
38687;PMS5003;24444;53.216;-6.664;2022-11-15T07:02:59;8;5;
38687;PMS5003;24444;53.216;-6.664;2022-11-15T07:05:27;1;1;
38687;PMS5003;24444;53.216;-6.664;2022-11-15T07:07:55;3;1;
38687;PMS5003;24444;53.216;-6.664;2022-11-15T07:10:24;3;2;
38687;PMS5003;24444;53.216;-6.664;2022-11-15T07:12:51;4;1;
38687;PMS5003;24444;53.216;-6.664;2022-11-15T07:15:22;4;3;
38687;PMS5003;24444;53.216;-6.664;2022-11-15T07:17:51;3;2;
38687;PMS5003;24444;53.216;-6.664;2022-11-15T07:20:20;8;5;
38687;PMS5003;24444;53.216;-6.664;2022-11-15T07:22:47;2;2;
38687;PMS5003;24444;53.216;-6.664;2022-11-15T07:25:14;7;3;
38687;PMS5003;24444;53.216;-6.664;2022-11-15T07:27:42;4;2;
38687;PMS5003;24444;53.216;-6.664;2022-11-15T07:30:10;5;2;
38687;PMS5003;24444;53.216;-6.664;2022-11-15T07:32:39;3;3;
38687;PMS5003;24444;53.216;-6.664;2022-11-15T07:35:06;4;3;
38687;PMS5003;24444;53.216;-6.664;2022-11-15T07:37:34;4;3;
38687;PMS5003;24444;53.216;-6.664;2022-11-15T07:40:01;4;2;
38687;PMS5003;24444;53.216;-6.664;2022-11-15T07:42:30;6;1;
38687;PMS5003;24444;53.216;-6.664;2022-11-15T07:44:57;3;2;
38687;PMS5003;24444;53.216;-6.664;2022-11-15T07:47:24;2;2;
38687;PMS5003;24444;53.216;-6.664;2022-11-15T07:49:51;5;3;
38687;PMS5003;24444;53.216;-6.664;2022-11-15T07:52:19;6;4;
38687;PMS5003;24444;53.216;-6.664;2022-11-15T07:54:46;4;3;
38687;PMS5003;24444;53.216;-6.664;2022-11-15T07:57:13;5;3;
38687;PMS5003;24444;53.216;-6.664;2022-11-15T07:59:40;4;2;
38687;PMS5003;24444;53.216;-6.664;2022-11-15T08:02:08;5;2;
38687;PMS5003;24444;53.216;-6.664;2022-11-15T08:04:35;5;1;
38687;PMS5003;24444;53.216;-6.664;2022-11-15T08:07:02;4;2;
38687;PMS5003;24444;53.216;-6.664;2022-11-15T08:09:29;4;3;
38687;PMS5003;24444;53.216;-6.664;2022-11-15T08:11:56;7;3;
38687;PMS5003;24444;53.216;-6.664;2022-11-15T08:14:23;5;2;
38687;PMS5003;24444;53.216;-6.664;2022-11-15T08:16:51;7;5;
38687;PMS5003;24444;53.216;-6.664;2022-11-15T08:19:18;7;3;
38687;PMS5003;24444;53.216;-6.664;2022-11-15T08:21:45;3;2;
38687;PMS5003;24444;53.216;-6.664;2022-11-15T08:24:12;4;3;
38687;PMS5003;24444;53.216;-6.664;2022-11-15T08:26:40;9;6;
38687;PMS5003;24444;53.216;-6.664;2022-11-15T08:29:07;8;4;
38687;PMS5003;24444;53.216;-6.664;2022-11-15T08:31:35;5;5;
38687;PMS5003;24444;53.216;-6.664;2022-11-15T08:34:03;2;2;
38687;PMS5003;24444;53.216;-6.664;2022-11-15T08:36:30;2;2;
38687;PMS5003;24444;53.216;-6.664;2022-11-15T08:38:58;5;2;
38687;PMS5003;24444;53.216;-6.664;2022-11-15T08:41:26;2;2;
38687;PMS5003;24444;53.216;-6.664;2022-11-15T08:43:56;2;1;
38687;PMS5003;24444;53.216;-6.664;2022-11-15T08:46:24;2;1;
38687;PMS5003;24444;53.216;-6.664;2022-11-15T08:48:50;4;2;
38687;PMS5003;24444;53.216;-6.664;2022-11-15T08:51:17;4;2;
38687;PMS5003;24444;53.216;-6.664;2022-11-15T08:53:44;2;1;
38687;PMS5003;24444;53.216;-6.664;2022-11-15T08:56:13;4;2;
38687;PMS5003;24444;53.216;-6.664;2022-11-15T08:58:41;5;2;
38687;PMS5003;24444;53.216;-6.664;2022-11-15T09:01:14;3;2;
38687;PMS5003;24444;53.216;-6.664;2022-11-15T09:03:43;6;3;
38687;PMS5003;24444;53.216;-6.664;2022-11-15T09:06:09;3;3;
38687;PMS5003;24444;53.216;-6.664;2022-11-15T09:08:36;6;3;
38687;PMS5003;24444;53.216;-6.664;2022-11-15T09:11:04;3;2;
38687;PMS5003;24444;53.216;-6.664;2022-11-15T09:13:32;3;2;
38687;PMS5003;24444;53.216;-6.664;2022-11-15T09:16:00;7;3;
38687;PMS5003;24444;53.216;-6.664;2022-11-15T09:18:28;5;5;
38687;PMS5003;24444;53.216;-6.664;2022-11-15T09:20:56;3;2;
38687;PMS5003;24444;53.216;-6.664;2022-11-15T09:23:23;4;2;
38687;PMS5003;24444;53.216;-6.664;2022-11-15T09:25:52;2;2;
38687;PMS5003;24444;53.216;-6.664;2022-11-15T09:28:24;4;3;
38687;PMS5003;24444;53.216;-6.664;2022-11-15T09:30:51;6;5;
38687;PMS5003;24444;53.216;-6.664;2022-11-15T09:33:21;5;2;
38687;PMS5003;24444;53.216;-6.664;2022-11-15T09:35:48;9;5;
38687;PMS5003;24444;53.216;-6.664;2022-11-15T09:38:16;3;2;
38687;PMS5003;24444;53.216;-6.664;2022-11-15T09:40:44;3;1;
38687;PMS5003;24444;53.216;-6.664;2022-11-15T09:43:23;3;1;
38687;PMS5003;24444;53.216;-6.664;2022-11-15T09:46:01;11;10;
38687;PMS5003;24444;53.216;-6.664;2022-11-15T09:48:43;2;2;
38687;PMS5003;24444;53.216;-6.664;2022-11-15T09:51:18;3;3;
38687;PMS5003;24444;53.216;-6.664;2022-11-15T09:53:55;2;2;
38687;PMS5003;24444;53.216;-6.664;2022-11-15T09:56:30;2;1;
38687;PMS5003;24444;53.216;-6.664;2022-11-15T09:59:01;4;2;
38687;PMS5003;24444;53.216;-6.664;2022-11-15T10:01:43;3;2;
38687;PMS5003;24444;53.216;-6.664;2022-11-15T10:04:16;3;3;
38687;PMS5003;24444;53.216;-6.664;2022-11-15T10:06:46;6;4;
38687;PMS5003;24444;53.216;-6.664;2022-11-15T10:09:21;2;1;
38687;PMS5003;24444;53.216;-6.664;2022-11-15T10:11:52;4;2;
38687;PMS5003;24444;53.216;-6.664;2022-11-15T10:14:21;2;2;
38687;PMS5003;24444;53.216;-6.664;2022-11-15T10:17:12;2;2;
38687;PMS5003;24444;53.216;-6.664;2022-11-15T10:19:52;5;2;
38687;PMS5003;24444;53.216;-6.664;2022-11-15T10:22:28;4;2;
38687;PMS5003;24444;53.216;-6.664;2022-11-15T10:25:01;9;7;
38687;PMS5003;24444;53.216;-6.664;2022-11-15T10:27:40;2;1;
38687;PMS5003;24444;53.216;-6.664;2022-11-15T10:30:11;5;3;
38687;PMS5003;24444;53.216;-6.664;2022-11-15T10:32:41;2;2;
38687;PMS5003;24444;53.216;-6.664;2022-11-15T10:35:19;15;15;
38687;PMS5003;24444;53.216;-6.664;2022-11-15T10:37:49;3;2;
38687;PMS5003;24444;53.216;-6.664;2022-11-15T10:40:19;4;3;
38687;PMS5003;24444;53.216;-6.664;2022-11-15T10:42:48;8;5;
38687;PMS5003;24444;53.216;-6.664;2022-11-15T10:45:31;12;8;
38687;PMS5003;24444;53.216;-6.664;2022-11-15T10:48:18;5;4;
38687;PMS5003;24444;53.216;-6.664;2022-11-15T10:50:49;9;7;
38687;PMS5003;24444;53.216;-6.664;2022-11-15T10:53:20;13;9;
38687;PMS5003;24444;53.216;-6.664;2022-11-15T10:55:52;12;8;
38687;PMS5003;24444;53.216;-6.664;2022-11-15T10:58:31;18;9;
38687;PMS5003;24444;53.216;-6.664;2022-11-15T11:01:08;8;5;
38687;PMS5003;24444;53.216;-6.664;2022-11-15T11:03:38;15;13;
38687;PMS5003;24444;53.216;-6.664;2022-11-15T11:06:09;23;17;
38687;PMS5003;24444;53.216;-6.664;2022-11-15T11:08:38;12;7;
38687;PMS5003;24444;53.216;-6.664;2022-11-15T11:11:06;22;16;
38687;PMS5003;24444;53.216;-6.664;2022-11-15T11:13:35;4;4;
38687;PMS5003;24444;53.216;-6.664;2022-11-15T11:16:14;6;5;
38687;PMS5003;24444;53.216;-6.664;2022-11-15T11:18:51;2;2;
38687;PMS5003;24444;53.216;-6.664;2022-11-15T11:21:26;11;7;
38687;PMS5003;24444;53.216;-6.664;2022-11-15T11:24:04;10;8;
38687;PMS5003;24444;53.216;-6.664;2022-11-15T11:26:42;4;4;
38687;PMS5003;24444;53.216;-6.664;2022-11-15T11:29:17;6;6;
38687;PMS5003;24444;53.216;-6.664;2022-11-15T11:31:56;8;7;
38687;PMS5003;24444;53.216;-6.664;2022-11-15T11:34:33;4;4;
38687;PMS5003;24444;53.216;-6.664;2022-11-15T11:37:12;2;1;
38687;PMS5003;24444;53.216;-6.664;2022-11-15T11:39:48;12;10;
38687;PMS5003;24444;53.216;-6.664;2022-11-15T11:42:28;6;4;
38687;PMS5003;24444;53.216;-6.664;2022-11-15T11:45:05;5;3;
38687;PMS5003;24444;53.216;-6.664;2022-11-15T11:47:46;3;3;
38687;PMS5003;24444;53.216;-6.664;2022-11-15T11:50:18;2;1;
38687;PMS5003;24444;53.216;-6.664;2022-11-15T11:52:50;5;4;
38687;PMS5003;24444;53.216;-6.664;2022-11-15T11:55:25;4;3;
38687;PMS5003;24444;53.216;-6.664;2022-11-15T11:58:01;2;1;
38687;PMS5003;24444;53.216;-6.664;2022-11-15T12:00:39;13;12;
38687;PMS5003;24444;53.216;-6.664;2022-11-15T12:03:11;9;6;
38687;PMS5003;24444;53.216;-6.664;2022-11-15T12:05:44;4;3;
38687;PMS5003;24444;53.216;-6.664;2022-11-15T12:08:20;5;3;
38687;PMS5003;24444;53.216;-6.664;2022-11-15T12:10:57;9;8;
38687;PMS5003;24444;53.216;-6.664;2022-11-15T12:13:30;3;3;
38687;PMS5003;24444;53.216;-6.664;2022-11-15T12:16:00;8;7;
38687;PMS5003;24444;53.216;-6.664;2022-11-15T12:18:34;5;5;
38687;PMS5003;24444;53.216;-6.664;2022-11-15T12:21:04;3;2;
38687;PMS5003;24444;53.216;-6.664;2022-11-15T12:23:41;3;2;
38687;PMS5003;24444;53.216;-6.664;2022-11-15T12:26:16;4;2;
38687;PMS5003;24444;53.216;-6.664;2022-11-15T12:28:49;4;4;
38687;PMS5003;24444;53.216;-6.664;2022-11-15T12:31:22;4;2;
38687;PMS5003;24444;53.216;-6.664;2022-11-15T12:33:54;4;4;
38687;PMS5003;24444;53.216;-6.664;2022-11-15T12:36:30;7;3;
38687;PMS5003;24444;53.216;-6.664;2022-11-15T12:39:03;4;2;
38687;PMS5003;24444;53.216;-6.664;2022-11-15T12:41:32;1;1;
38687;PMS5003;24444;53.216;-6.664;2022-11-15T12:44:00;3;2;
38687;PMS5003;24444;53.216;-6.664;2022-11-15T12:47:21;2;2;
38687;PMS5003;24444;53.216;-6.664;2022-11-15T12:49:50;4;2;
38687;PMS5003;24444;53.216;-6.664;2022-11-15T12:52:18;5;2;
38687;PMS5003;24444;53.216;-6.664;2022-11-15T12:54:50;4;2;
38687;PMS5003;24444;53.216;-6.664;2022-11-15T12:57:51;2;0;
38687;PMS5003;24444;53.216;-6.664;2022-11-15T13:00:41;1;1;
38687;PMS5003;24444;53.216;-6.664;2022-11-15T13:03:22;2;2;
38687;PMS5003;24444;53.216;-6.664;2022-11-15T13:05:58;5;4;
38687;PMS5003;24444;53.216;-6.664;2022-11-15T13:08:47;4;4;
38687;PMS5003;24444;53.216;-6.664;2022-11-15T13:11:49;4;4;
38687;PMS5003;24444;53.216;-6.664;2022-11-15T13:14:37;7;3;
38687;PMS5003;24444;53.216;-6.664;2022-11-15T13:17:12;6;4;
38687;PMS5003;24444;53.216;-6.664;2022-11-15T13:19:53;3;2;
38687;PMS5003;24444;53.216;-6.664;2022-11-15T13:22:27;9;4;
38687;PMS5003;24444;53.216;-6.664;2022-11-15T13:25:04;8;5;
38687;PMS5003;24444;53.216;-6.664;2022-11-15T13:27:43;7;5;
38687;PMS5003;24444;53.216;-6.664;2022-11-15T13:30:13;4;2;
38687;PMS5003;24444;53.216;-6.664;2022-11-15T13:32:46;8;8;
38687;PMS5003;24444;53.216;-6.664;2022-11-15T13:35:17;3;2;
38687;PMS5003;24444;53.216;-6.664;2022-11-15T13:37:47;6;4;
38687;PMS5003;24444;53.216;-6.664;2022-11-15T13:40:18;4;2;
38687;PMS5003;24444;53.216;-6.664;2022-11-15T13:42:49;5;4;
38687;PMS5003;24444;53.216;-6.664;2022-11-15T13:45:17;4;3;
38687;PMS5003;24444;53.216;-6.664;2022-11-15T13:47:50;2;2;
38687;PMS5003;24444;53.216;-6.664;2022-11-15T13:50:20;6;2;
38687;PMS5003;24444;53.216;-6.664;2022-11-15T13:52:51;2;2;
38687;PMS5003;24444;53.216;-6.664;2022-11-15T13:55:20;3;2;
38687;PMS5003;24444;53.216;-6.664;2022-11-15T13:57:51;5;2;
38687;PMS5003;24444;53.216;-6.664;2022-11-15T14:00:37;5;4;
38687;PMS5003;24444;53.216;-6.664;2022-11-15T14:03:12;5;3;
38687;PMS5003;24444;53.216;-6.664;2022-11-15T14:06:00;6;6;
38687;PMS5003;24444;53.216;-6.664;2022-11-15T14:08:32;4;3;
38687;PMS5003;24444;53.216;-6.664;2022-11-15T14:11:07;2;1;
38687;PMS5003;24444;53.216;-6.664;2022-11-15T14:14:04;3;2;
38687;PMS5003;24444;53.216;-6.664;2022-11-15T14:16:45;5;3;
38687;PMS5003;24444;53.216;-6.664;2022-11-15T14:19:33;5;3;
38687;PMS5003;24444;53.216;-6.664;2022-11-15T14:22:12;5;5;
38687;PMS5003;24444;53.216;-6.664;2022-11-15T14:24:43;6;5;
38687;PMS5003;24444;53.216;-6.664;2022-11-15T14:27:16;7;4;
38687;PMS5003;24444;53.216;-6.664;2022-11-15T14:29:45;5;4;
38687;PMS5003;24444;53.216;-6.664;2022-11-15T14:32:14;3;2;
38687;PMS5003;24444;53.216;-6.664;2022-11-15T14:34:43;4;4;
38687;PMS5003;24444;53.216;-6.664;2022-11-15T14:37:24;10;6;
38687;PMS5003;24444;53.216;-6.664;2022-11-15T14:39:53;4;4;
38687;PMS5003;24444;53.216;-6.664;2022-11-15T14:42:22;4;3;
38687;PMS5003;24444;53.216;-6.664;2022-11-15T14:44:50;7;4;
38687;PMS5003;24444;53.216;-6.664;2022-11-15T14:47:18;5;5;
38687;PMS5003;24444;53.216;-6.664;2022-11-15T14:49:45;5;4;
38687;PMS5003;24444;53.216;-6.664;2022-11-15T14:52:23;6;3;
38687;PMS5003;24444;53.216;-6.664;2022-11-15T14:54:52;4;3;
38687;PMS5003;24444;53.216;-6.664;2022-11-15T14:57:20;4;3;
38687;PMS5003;24444;53.216;-6.664;2022-11-15T14:59:46;5;4;
38687;PMS5003;24444;53.216;-6.664;2022-11-15T15:02:16;6;3;
38687;PMS5003;24444;53.216;-6.664;2022-11-15T15:04:44;3;2;
38687;PMS5003;24444;53.216;-6.664;2022-11-15T15:07:12;4;2;
38687;PMS5003;24444;53.216;-6.664;2022-11-15T15:09:41;6;4;
38687;PMS5003;24444;53.216;-6.664;2022-11-15T15:12:12;3;3;
38687;PMS5003;24444;53.216;-6.664;2022-11-15T15:14:42;4;2;
38687;PMS5003;24444;53.216;-6.664;2022-11-15T15:17:11;4;3;
38687;PMS5003;24444;53.216;-6.664;2022-11-15T15:19:38;2;2;
38687;PMS5003;24444;53.216;-6.664;2022-11-15T15:22:08;4;3;
38687;PMS5003;24444;53.216;-6.664;2022-11-15T15:24:39;4;2;
38687;PMS5003;24444;53.216;-6.664;2022-11-15T15:27:06;6;4;
38687;PMS5003;24444;53.216;-6.664;2022-11-15T15:29:34;3;3;
38687;PMS5003;24444;53.216;-6.664;2022-11-15T15:32:01;2;2;
38687;PMS5003;24444;53.216;-6.664;2022-11-15T15:34:29;2;1;
38687;PMS5003;24444;53.216;-6.664;2022-11-15T15:37:19;7;3;
38687;PMS5003;24444;53.216;-6.664;2022-11-15T15:39:49;3;2;
38687;PMS5003;24444;53.216;-6.664;2022-11-15T15:42:17;3;2;
38687;PMS5003;24444;53.216;-6.664;2022-11-15T15:44:45;11;7;
38687;PMS5003;24444;53.216;-6.664;2022-11-15T15:47:14;6;4;
38687;PMS5003;24444;53.216;-6.664;2022-11-15T15:49:44;4;1;
38687;PMS5003;24444;53.216;-6.664;2022-11-15T15:52:11;3;2;
38687;PMS5003;24444;53.216;-6.664;2022-11-15T15:54:38;5;4;
38687;PMS5003;24444;53.216;-6.664;2022-11-15T15:57:07;6;5;
38687;PMS5003;24444;53.216;-6.664;2022-11-15T15:59:38;5;5;
38687;PMS5003;24444;53.216;-6.664;2022-11-15T16:02:06;6;5;
38687;PMS5003;24444;53.216;-6.664;2022-11-15T16:04:35;11;9;
38687;PMS5003;24444;53.216;-6.664;2022-11-15T16:07:03;10;7;
38687;PMS5003;24444;53.216;-6.664;2022-11-15T16:09:30;9;6;
38687;PMS5003;24444;53.216;-6.664;2022-11-15T16:11:58;17;15;
38687;PMS5003;24444;53.216;-6.664;2022-11-15T16:14:25;14;13;
38687;PMS5003;24444;53.216;-6.664;2022-11-15T16:16:52;23;20;
38687;PMS5003;24444;53.216;-6.664;2022-11-15T16:19:20;26;24;
38687;PMS5003;24444;53.216;-6.664;2022-11-15T16:21:47;25;24;
38687;PMS5003;24444;53.216;-6.664;2022-11-15T16:24:14;37;30;
38687;PMS5003;24444;53.216;-6.664;2022-11-15T16:26:41;30;27;
38687;PMS5003;24444;53.216;-6.664;2022-11-15T16:29:10;21;18;
38687;PMS5003;24444;53.216;-6.664;2022-11-15T16:31:37;18;16;
38687;PMS5003;24444;53.216;-6.664;2022-11-15T16:34:04;20;14;
38687;PMS5003;24444;53.216;-6.664;2022-11-15T16:36:33;12;10;
38687;PMS5003;24444;53.216;-6.664;2022-11-15T16:39:02;6;5;
38687;PMS5003;24444;53.216;-6.664;2022-11-15T16:41:30;7;6;
38687;PMS5003;24444;53.216;-6.664;2022-11-15T16:43:58;8;8;
38687;PMS5003;24444;53.216;-6.664;2022-11-15T16:46:26;8;8;
38687;PMS5003;24444;53.216;-6.664;2022-11-15T16:48:54;11;9;
38687;PMS5003;24444;53.216;-6.664;2022-11-15T16:51:21;9;8;
38687;PMS5003;24444;53.216;-6.664;2022-11-15T16:53:49;5;5;
38687;PMS5003;24444;53.216;-6.664;2022-11-15T16:56:18;9;9;
38687;PMS5003;24444;53.216;-6.664;2022-11-15T16:58:48;18;14;